createdAt,value
2022-11-25T00:01:33.832Z,108.70
2022-11-25T00:04:01.887Z,109.00
2022-11-25T00:06:32.324Z,104.00
2022-11-25T00:09:04.919Z,108.00
2022-11-25T00:11:36.348Z,107.30
2022-11-25T00:14:04.428Z,106.30
2022-11-25T00:16:32.111Z,102.80
2022-11-25T00:18:59.894Z,102.90
2022-11-25T00:21:29.937Z,105.40
2022-11-25T00:23:59.723Z,97.80
2022-11-25T00:26:28.674Z,101.00
2022-11-25T00:28:58.788Z,101.30
2022-11-25T00:31:34.748Z,98.90
2022-11-25T00:34:02.944Z,98.00
2022-11-25T00:36:36.349Z,96.80
2022-11-25T00:39:12.787Z,95.40
2022-11-25T00:41:59.624Z,95.90
2022-11-25T00:44:37.180Z,91.20
2022-11-25T00:47:14.595Z,91.10
2022-11-25T00:49:45.436Z,90.30
2022-11-25T00:52:15.777Z,94.40
2022-11-25T00:54:44.904Z,92.90
2022-11-25T00:57:12.610Z,95.40
2022-11-25T00:59:41.004Z,95.60
2022-11-25T01:02:10.657Z,89.90
2022-11-25T01:04:38.844Z,88.00
2022-11-25T01:07:06.799Z,89.40
2022-11-25T01:09:35.497Z,84.30
2022-11-25T01:12:05.346Z,83.40
2022-11-25T01:14:33.708Z,83.10
2022-11-25T01:17:01.633Z,81.60
2022-11-25T01:19:29.319Z,82.00
2022-11-25T01:21:56.956Z,83.80
2022-11-25T01:24:26.300Z,83.30
2022-11-25T01:26:55.889Z,79.50
2022-11-25T01:29:23.581Z,82.30
2022-11-25T01:31:55.316Z,80.40
2022-11-25T01:34:25.604Z,79.50
2022-11-25T01:36:53.216Z,79.10
2022-11-25T01:39:27.005Z,81.40
2022-11-25T01:41:58.066Z,76.80
2022-11-25T01:44:31.093Z,77.90
2022-11-25T01:47:03.805Z,75.30
2022-11-25T01:49:42.058Z,76.10
2022-11-25T01:52:33.222Z,75.00
2022-11-25T01:55:11.854Z,74.00
2022-11-25T01:57:52.406Z,71.50
2022-11-25T02:00:20.520Z,70.40
2022-11-25T02:02:49.951Z,72.10
2022-11-25T02:05:20.979Z,74.10
2022-11-25T02:07:51.515Z,74.10
2022-11-25T02:10:23.999Z,75.10
2022-11-25T02:12:52.145Z,74.40
2022-11-25T02:15:22.352Z,76.50
2022-11-25T02:17:50.237Z,74.50
2022-11-25T02:20:20.031Z,71.30
2022-11-25T02:22:54.093Z,72.30
2022-11-25T02:25:26.017Z,71.90
2022-11-25T02:28:09.499Z,71.90
2022-11-25T02:30:38.188Z,70.10
2022-11-25T02:33:06.911Z,66.60
2022-11-25T02:35:37.107Z,68.80
2022-11-25T02:38:17.342Z,69.80
2022-11-25T02:40:51.663Z,69.30
2022-11-25T02:43:20.340Z,71.10
2022-11-25T02:45:53.720Z,72.70
2022-11-25T02:48:34.539Z,70.20
2022-11-25T02:51:13.139Z,72.00
2022-11-25T02:53:41.591Z,70.20
2022-11-25T02:56:10.192Z,71.40
2022-11-25T02:58:39.211Z,70.60
2022-11-25T03:01:06.951Z,73.60
2022-11-25T03:03:35.463Z,72.20
2022-11-25T03:06:03.617Z,72.60
2022-11-25T03:08:31.323Z,73.10
2022-11-25T03:10:59.683Z,71.70
2022-11-25T03:13:28.566Z,72.10
2022-11-25T03:15:56.215Z,70.90
2022-11-25T03:18:24.705Z,72.60
2022-11-25T03:20:53.332Z,72.00
2022-11-25T03:23:21.391Z,74.10
2022-11-25T03:25:49.606Z,72.10
2022-11-25T03:28:17.450Z,72.20
2022-11-25T03:30:45.732Z,74.50
2022-11-25T03:33:13.711Z,72.10
2022-11-25T03:35:41.423Z,71.20
2022-11-25T03:38:09.147Z,71.00
2022-11-25T03:40:38.067Z,69.20
2022-11-25T03:43:05.832Z,70.60
2022-11-25T03:45:34.402Z,70.40
2022-11-25T03:48:03.716Z,71.80
2022-11-25T03:50:31.541Z,70.50
2022-11-25T03:52:59.170Z,73.10
2022-11-25T03:55:27.450Z,68.10
2022-11-25T03:57:55.788Z,71.10
2022-11-25T04:00:25.472Z,71.90
2022-11-25T04:02:58.263Z,70.10
2022-11-25T04:05:26.127Z,69.50
2022-11-25T04:07:57.883Z,70.50
2022-11-25T04:10:26.189Z,69.90
2022-11-25T04:12:54.252Z,69.00
2022-11-25T04:15:30.064Z,69.70
2022-11-25T04:17:58.711Z,69.50
2022-11-25T04:20:26.416Z,70.50
2022-11-25T04:23:01.063Z,69.60
2022-11-25T04:25:29.055Z,70.80
2022-11-25T04:27:56.797Z,72.90
2022-11-25T04:30:29.225Z,70.40
2022-11-25T04:32:57.323Z,71.40
2022-11-25T04:35:25.054Z,68.80
2022-11-25T04:37:54.725Z,69.50
2022-11-25T04:40:23.282Z,70.00
2022-11-25T04:43:02.566Z,67.90
2022-11-25T04:45:58.545Z,66.70
2022-11-25T04:48:22.014Z,65.80
2022-11-25T04:50:49.759Z,65.60
2022-11-25T04:53:17.844Z,69.30
2022-11-25T04:55:46.323Z,65.90
2022-11-25T04:58:36.343Z,67.20
2022-11-25T05:01:04.498Z,67.90
2022-11-25T05:03:32.465Z,71.00
2022-11-25T05:06:00.196Z,68.20
2022-11-25T05:08:27.927Z,67.90
2022-11-25T05:10:59.297Z,68.40
2022-11-25T05:13:27.079Z,67.40
2022-11-25T05:15:54.989Z,67.30
2022-11-25T05:18:22.825Z,66.40
2022-11-25T05:20:50.413Z,67.10
2022-11-25T05:23:19.616Z,64.80
2022-11-25T05:25:47.536Z,68.00
2022-11-25T05:28:27.512Z,64.50
2022-11-25T05:30:55.602Z,66.20
2022-11-25T05:33:24.178Z,63.70
2022-11-25T05:35:56.715Z,65.20
2022-11-25T05:38:25.433Z,63.10
2022-11-25T05:40:54.670Z,62.80
2022-11-25T05:43:22.622Z,62.00
2022-11-25T05:45:50.320Z,63.90
2022-11-25T05:48:18.896Z,61.90
2022-11-25T05:50:47.649Z,62.70
2022-11-25T05:53:20.589Z,62.10
2022-11-25T05:55:56.128Z,62.30
2022-11-25T05:58:33.863Z,68.30
2022-11-25T06:01:06.902Z,69.60
2022-11-25T06:03:35.158Z,63.50
2022-11-25T06:06:03.068Z,60.60
2022-11-25T06:08:30.837Z,59.10
2022-11-25T06:10:58.884Z,58.90
2022-11-25T06:13:27.160Z,61.30
2022-11-25T06:15:54.773Z,58.60
2022-11-25T06:18:22.529Z,58.80
2022-11-25T06:20:57.850Z,58.10
2022-11-25T06:23:26.641Z,59.80
2022-11-25T06:26:03.895Z,64.50
2022-11-25T06:28:32.171Z,81.80
2022-11-25T06:31:14.781Z,84.70
2022-11-25T06:33:53.205Z,73.50
2022-11-25T06:36:22.325Z,78.40
2022-11-25T06:38:52.525Z,76.10
2022-11-25T06:41:21.573Z,76.50
2022-11-25T06:43:49.360Z,70.90
2022-11-25T06:46:24.401Z,70.70
2022-11-25T06:48:53.423Z,71.40
2022-11-25T06:51:21.134Z,76.00
2022-11-25T06:53:48.799Z,76.90
2022-11-25T06:56:19.198Z,74.70
2022-11-25T06:58:47.848Z,72.20
2022-11-25T07:01:27.245Z,69.90
2022-11-25T07:03:58.644Z,69.00
2022-11-25T07:06:26.829Z,70.20
2022-11-25T07:08:54.565Z,69.40
2022-11-25T07:11:24.274Z,70.30
2022-11-25T07:13:54.157Z,70.50
2022-11-25T07:16:22.098Z,73.50
2022-11-25T07:18:50.208Z,75.10
2022-11-25T07:21:20.196Z,78.40
2022-11-25T07:23:48.357Z,74.20
2022-11-25T07:26:21.809Z,70.50
2022-11-25T07:28:50.837Z,68.00
2022-11-25T07:31:24.323Z,69.70
2022-11-25T07:33:53.902Z,68.70
2022-11-25T07:36:22.178Z,72.60
2022-11-25T07:38:50.066Z,72.50
2022-11-25T07:41:22.980Z,68.40
2022-11-25T07:43:54.031Z,70.90
2022-11-25T07:46:38.080Z,70.70
2022-11-25T07:49:08.831Z,76.90
2022-11-25T07:51:51.276Z,73.40
2022-11-25T07:54:19.290Z,70.10
2022-11-25T07:56:48.470Z,74.90
2022-11-25T07:59:18.960Z,76.30
2022-11-25T08:01:48.495Z,79.60
2022-11-25T08:04:20.048Z,89.30
2022-11-25T08:06:50.738Z,102.70
2022-11-25T08:09:22.353Z,90.20
2022-11-25T08:11:50.415Z,71.20
2022-11-25T08:14:18.193Z,72.00
2022-11-25T08:16:45.975Z,73.10
2022-11-25T08:19:15.454Z,69.00
2022-11-25T08:21:43.405Z,67.20
2022-11-25T08:24:19.546Z,69.50
2022-11-25T08:26:47.931Z,70.00
2022-11-25T08:29:17.357Z,68.10
2022-11-25T08:31:45.176Z,63.70
2022-11-25T08:34:19.247Z,68.30
2022-11-25T08:36:48.780Z,71.10
2022-11-25T08:39:44.152Z,71.00
2022-11-25T08:42:06.277Z,70.00
2022-11-25T08:44:35.061Z,74.40
2022-11-25T08:47:02.785Z,73.00
2022-11-25T08:49:32.718Z,82.50
2022-11-25T08:52:03.947Z,83.80
2022-11-25T08:54:31.578Z,73.10
2022-11-25T08:57:00.687Z,72.30
2022-11-25T08:59:28.376Z,78.00
2022-11-25T09:01:56.060Z,118.40
2022-11-25T09:04:23.846Z,243.10
2022-11-25T09:06:51.468Z,404.40
2022-11-25T09:09:19.179Z,406.60
2022-11-25T09:11:46.885Z,290.50
2022-11-25T09:14:14.918Z,187.10
2022-11-25T09:16:42.767Z,115.80
2022-11-25T09:19:10.458Z,116.30
2022-11-25T09:21:38.079Z,175.10
2022-11-25T09:24:05.953Z,108.20
2022-11-25T09:26:35.812Z,85.90
2022-11-25T09:29:03.649Z,80.10
2022-11-25T09:31:31.348Z,75.70
2022-11-25T09:33:59.220Z,79.60
2022-11-25T09:36:26.944Z,87.40
2022-11-25T09:38:54.825Z,83.60
2022-11-25T09:41:54.638Z,89.60
2022-11-25T09:45:00.405Z,99.60
2022-11-25T09:47:57.237Z,96.30
2022-11-25T09:50:47.626Z,92.60
2022-11-25T09:53:37.127Z,84.20
2022-11-25T09:56:12.462Z,101.50
2022-11-25T09:58:51.482Z,105.50
2022-11-25T10:01:22.993Z,97.50
2022-11-25T10:04:00.893Z,95.70
2022-11-25T10:06:36.887Z,95.10
2022-11-25T10:09:13.580Z,94.50
2022-11-25T10:12:01.327Z,90.40
2022-11-25T10:14:49.793Z,90.20
2022-11-25T10:17:42.001Z,91.40
2022-11-25T10:20:35.764Z,97.40
2022-11-25T10:23:06.112Z,103.90
2022-11-25T10:25:39.719Z,104.50
2022-11-25T10:28:22.308Z,102.40
2022-11-25T10:31:12.337Z,100.00
2022-11-25T10:33:54.887Z,101.00
2022-11-25T10:36:48.808Z,118.50
2022-11-25T10:39:31.508Z,111.10
2022-11-25T10:42:26.089Z,110.00
2022-11-25T10:44:54.962Z,118.70
2022-11-25T10:47:56.871Z,106.80
2022-11-25T10:51:03.351Z,104.90
2022-11-25T10:53:31.070Z,102.00
2022-11-25T10:56:01.564Z,122.60
2022-11-25T10:58:30.963Z,148.70
2022-11-25T11:01:16.997Z,146.20
2022-11-25T11:03:46.560Z,130.20
2022-11-25T11:06:37.207Z,110.80
2022-11-25T11:09:05.165Z,111.50
2022-11-25T11:11:33.032Z,110.40
2022-11-25T11:14:21.328Z,110.30
2022-11-25T11:16:54.107Z,162.40
2022-11-25T11:19:24.540Z,134.20
2022-11-25T11:21:52.752Z,123.10
2022-11-25T11:24:32.272Z,157.90
2022-11-25T11:27:23.260Z,120.00
2022-11-25T11:30:15.835Z,131.00
2022-11-25T11:32:47.860Z,135.30
2022-11-25T11:35:22.248Z,165.80
2022-11-25T11:37:53.237Z,134.50
2022-11-25T11:40:30.095Z,150.20
2022-11-25T11:43:12.035Z,122.70
2022-11-25T11:46:04.874Z,120.00
2022-11-25T11:48:39.536Z,122.60
2022-11-25T11:51:24.913Z,125.30
2022-11-25T11:54:15.583Z,127.50
2022-11-25T11:56:54.985Z,130.70
2022-11-25T11:59:49.201Z,130.60
2022-11-25T12:02:36.656Z,132.60
2022-11-25T12:05:10.541Z,133.70
2022-11-25T12:08:03.164Z,157.60
2022-11-25T12:10:38.921Z,140.20
2022-11-25T12:13:34.260Z,131.70
2022-11-25T12:16:17.379Z,124.80
2022-11-25T12:19:03.486Z,127.40
2022-11-25T12:21:49.286Z,139.40
2022-11-25T12:24:31.578Z,136.00
2022-11-25T12:27:20.196Z,111.80
2022-11-25T12:29:55.894Z,109.00
2022-11-25T12:32:52.139Z,124.10
2022-11-25T12:35:55.309Z,115.50
2022-11-25T12:38:30.289Z,113.70
2022-11-25T12:41:41.317Z,113.20
2022-11-25T12:44:20.648Z,105.80
2022-11-25T12:46:49.883Z,125.60
2022-11-25T12:49:23.899Z,129.50
2022-11-25T12:52:12.992Z,148.00
2022-11-25T12:54:54.599Z,107.50
2022-11-25T12:57:30.349Z,104.80
2022-11-25T13:00:39.812Z,104.00
2022-11-25T13:03:34.373Z,110.40
2022-11-25T13:06:29.601Z,114.50
2022-11-25T13:09:21.595Z,113.20
2022-11-25T13:12:08.485Z,111.40
2022-11-25T13:14:55.105Z,114.80
2022-11-25T13:17:23.708Z,112.50
2022-11-25T13:20:23.647Z,116.70
2022-11-25T13:23:08.390Z,106.40
2022-11-25T13:25:41.118Z,205.70
2022-11-25T13:28:27.924Z,162.90
2022-11-25T13:30:56.345Z,135.80
2022-11-25T13:33:23.921Z,110.40
2022-11-25T13:35:55.527Z,109.00
2022-11-25T13:38:28.946Z,105.50
2022-11-25T13:40:59.006Z,99.30
2022-11-25T13:43:27.188Z,125.10
2022-11-25T13:45:55.551Z,97.60
2022-11-25T13:48:25.624Z,111.10
2022-11-25T13:51:15.954Z,111.30
2022-11-25T13:53:52.015Z,87.60
2022-11-25T13:56:33.696Z,96.40
2022-11-25T13:59:10.705Z,136.90
2022-11-25T14:01:53.114Z,133.20
2022-11-25T14:04:59.887Z,117.10
2022-11-25T14:07:43.021Z,103.70
2022-11-25T14:10:35.967Z,92.60
2022-11-25T14:13:19.020Z,89.80
2022-11-25T14:16:10.125Z,159.10
2022-11-25T14:19:21.729Z,93.70
2022-11-25T14:21:52.169Z,103.90
2022-11-25T14:24:23.085Z,99.90
2022-11-25T14:26:55.244Z,102.50
2022-11-25T14:29:37.408Z,94.80
2022-11-25T14:32:10.842Z,96.60
2022-11-25T14:34:44.776Z,100.30
2022-11-25T14:37:39.673Z,98.30
2022-11-25T14:40:10.187Z,97.10
2022-11-25T14:42:41.013Z,106.00
2022-11-25T14:45:25.638Z,104.80
2022-11-25T14:47:53.395Z,110.90
2022-11-25T14:50:37.108Z,115.80
2022-11-25T14:53:07.984Z,112.30
2022-11-25T14:55:35.814Z,109.30
2022-11-25T14:58:03.736Z,109.00
2022-11-25T15:00:31.371Z,116.30
2022-11-25T15:03:01.197Z,119.30
2022-11-25T15:05:36.506Z,112.30
2022-11-25T15:08:11.168Z,113.60
2022-11-25T15:10:53.084Z,114.80
2022-11-25T15:13:32.833Z,114.00
2022-11-25T15:16:08.361Z,114.30
2022-11-25T15:18:37.043Z,110.40
2022-11-25T15:21:05.413Z,112.50
2022-11-25T15:23:37.138Z,103.60
2022-11-25T15:26:13.398Z,104.10
2022-11-25T15:28:41.919Z,104.70
2022-11-25T15:31:15.433Z,99.10
2022-11-25T15:33:43.837Z,100.40
2022-11-25T15:36:11.819Z,102.80
2022-11-25T15:38:43.682Z,101.00
2022-11-25T15:41:18.680Z,110.70
2022-11-25T15:43:49.715Z,103.20
2022-11-25T15:46:18.224Z,105.70
2022-11-25T15:48:47.423Z,101.00
2022-11-25T15:51:43.706Z,105.30
2022-11-25T15:54:20.724Z,117.20
2022-11-25T15:56:51.177Z,102.80
2022-11-25T15:59:56.023Z,103.80
2022-11-25T16:02:43.557Z,95.50
2022-11-25T16:05:17.213Z,95.10
2022-11-25T16:07:53.294Z,97.50
2022-11-25T16:10:22.173Z,96.10
2022-11-25T16:13:29.101Z,97.50
2022-11-25T16:16:03.563Z,93.60
2022-11-25T16:18:41.880Z,93.20
2022-11-25T16:21:21.812Z,93.30
2022-11-25T16:23:58.314Z,91.40
2022-11-25T16:26:49.072Z,87.60
2022-11-25T16:29:39.173Z,87.20
2022-11-25T16:32:15.697Z,89.10
2022-11-25T16:34:43.614Z,90.80
2022-11-25T16:37:11.534Z,90.40
2022-11-25T16:39:39.593Z,94.30
2022-11-25T16:42:17.016Z,98.40
2022-11-25T16:44:48.200Z,97.00
2022-11-25T16:47:17.708Z,94.50
2022-11-25T16:49:46.522Z,96.80
2022-11-25T16:52:14.783Z,99.60
2022-11-25T16:54:42.539Z,97.30
2022-11-25T16:57:17.763Z,91.90
2022-11-25T16:59:46.271Z,95.50
2022-11-25T17:02:18.742Z,95.90
2022-11-25T17:04:47.509Z,92.50
2022-11-25T17:07:32.908Z,96.10
2022-11-25T17:10:01.113Z,96.10
2022-11-25T17:12:32.541Z,95.70
2022-11-25T17:15:00.931Z,96.00
2022-11-25T17:17:28.936Z,96.20
2022-11-25T17:19:56.731Z,96.80
2022-11-25T17:22:25.835Z,104.60
2022-11-25T17:24:53.949Z,101.40
2022-11-25T17:27:27.375Z,96.60
2022-11-25T17:29:56.966Z,98.10
2022-11-25T17:32:25.793Z,95.20
2022-11-25T17:34:53.894Z,97.90
2022-11-25T17:37:23.748Z,102.70
2022-11-25T17:39:53.519Z,101.50
2022-11-25T17:42:32.257Z,98.00
2022-11-25T17:45:00.408Z,94.20
2022-11-25T17:47:28.334Z,102.10
2022-11-25T17:49:57.741Z,102.40
2022-11-25T17:52:25.463Z,101.00
2022-11-25T17:54:53.179Z,101.90
2022-11-25T17:57:21.482Z,103.60
2022-11-25T17:59:49.584Z,100.90
2022-11-25T18:02:19.005Z,104.60
2022-11-25T18:04:47.205Z,97.40
2022-11-25T18:07:14.935Z,105.60
2022-11-25T18:09:42.869Z,111.80
2022-11-25T18:12:16.960Z,127.20
2022-11-25T18:14:44.929Z,115.20
2022-11-25T18:17:17.925Z,116.10
2022-11-25T18:19:49.975Z,115.30
2022-11-25T18:22:21.647Z,108.80
2022-11-25T18:24:49.361Z,112.30
2022-11-25T18:27:31.923Z,139.30
2022-11-25T18:30:02.456Z,114.10
2022-11-25T18:32:30.349Z,108.50
2022-11-25T18:34:57.991Z,106.40
2022-11-25T18:37:25.632Z,132.80
2022-11-25T18:39:53.216Z,123.20
2022-11-25T18:42:24.729Z,141.20
2022-11-25T18:44:53.743Z,134.90
2022-11-25T18:47:21.500Z,122.20
2022-11-25T18:49:55.076Z,133.70
2022-11-25T18:52:24.901Z,124.80
2022-11-25T18:54:52.628Z,117.10
2022-11-25T18:57:20.252Z,123.70
2022-11-25T19:00:00.273Z,135.20
2022-11-25T19:02:36.026Z,123.60
2022-11-25T19:05:33.460Z,124.00
2022-11-25T19:08:01.232Z,133.10
2022-11-25T19:10:31.372Z,132.30
2022-11-25T19:13:01.702Z,140.20
2022-11-25T19:15:29.353Z,142.80
2022-11-25T19:18:01.536Z,147.80
2022-11-25T19:20:30.266Z,150.60
2022-11-25T19:23:01.126Z,145.00
2022-11-25T19:25:29.641Z,154.70
2022-11-25T19:27:58.961Z,142.10
2022-11-25T19:30:28.765Z,144.90
2022-11-25T19:32:58.688Z,141.90
2022-11-25T19:35:31.573Z,132.90
2022-11-25T19:37:59.230Z,131.40
2022-11-25T19:40:31.461Z,137.20
2022-11-25T19:43:02.500Z,132.60
2022-11-25T19:45:30.993Z,129.40
2022-11-25T19:47:59.388Z,133.10
2022-11-25T19:50:28.513Z,128.40
2022-11-25T19:52:56.172Z,132.10
2022-11-25T19:55:26.468Z,127.20
2022-11-25T19:57:54.536Z,132.40
2022-11-25T20:00:23.554Z,136.20
2022-11-25T20:02:53.456Z,192.60
2022-11-25T20:05:30.148Z,213.20
2022-11-25T20:07:57.869Z,159.70
2022-11-25T20:10:27.867Z,143.30
2022-11-25T20:12:56.916Z,136.40
2022-11-25T20:15:25.699Z,131.10
2022-11-25T20:17:56.372Z,136.70
2022-11-25T20:20:32.705Z,133.30
2022-11-25T20:23:04.902Z,128.80
2022-11-25T20:25:36.172Z,121.10
2022-11-25T20:28:03.835Z,118.50
2022-11-25T20:30:31.444Z,122.50
2022-11-25T20:32:59.035Z,121.50
2022-11-25T20:35:26.656Z,112.50
2022-11-25T20:37:57.544Z,115.50
2022-11-25T20:40:32.972Z,123.50
2022-11-25T20:43:01.040Z,121.80
2022-11-25T20:45:28.805Z,118.90
2022-11-25T20:47:56.711Z,117.70
2022-11-25T20:50:24.407Z,113.80
2022-11-25T20:52:52.080Z,108.30
2022-11-25T20:55:24.788Z,111.40
2022-11-25T20:57:52.934Z,117.30
2022-11-25T21:00:26.506Z,117.70
2022-11-25T21:02:55.566Z,116.60
2022-11-25T21:05:23.503Z,120.90
2022-11-25T21:07:51.193Z,115.50
2022-11-25T21:10:28.217Z,117.30
2022-11-25T21:12:56.684Z,113.60
2022-11-25T21:15:27.406Z,121.70
2022-11-25T21:17:55.276Z,119.00
2022-11-25T21:20:22.963Z,115.20
2022-11-25T21:22:54.564Z,118.80
2022-11-25T21:25:22.596Z,119.90
2022-11-25T21:27:52.081Z,120.80
2022-11-25T21:30:22.300Z,119.10
2022-11-25T21:32:54.935Z,136.50
2022-11-25T21:35:26.202Z,126.40
2022-11-25T21:37:53.853Z,117.00
2022-11-25T21:40:31.401Z,120.00
2022-11-25T21:42:59.676Z,112.50
2022-11-25T21:45:27.308Z,114.60
2022-11-25T21:47:54.900Z,116.10
2022-11-25T21:50:22.565Z,115.30
2022-11-25T21:52:50.241Z,112.00
2022-11-25T21:55:17.895Z,114.00
2022-11-25T21:57:45.609Z,125.80
2022-11-25T22:00:19.986Z,125.90
2022-11-25T22:02:48.123Z,128.20
2022-11-25T22:05:17.662Z,119.40
2022-11-25T22:07:45.746Z,144.20
2022-11-25T22:10:15.831Z,136.20
2022-11-25T22:12:46.145Z,146.00
2022-11-25T22:15:19.254Z,134.50
2022-11-25T22:17:47.429Z,130.20
2022-11-25T22:20:24.160Z,137.80
2022-11-25T22:22:51.902Z,125.80
2022-11-25T22:25:19.627Z,128.00
2022-11-25T22:27:47.765Z,140.60
2022-11-25T22:30:17.727Z,139.10
2022-11-25T22:32:46.983Z,128.30
2022-11-25T22:35:19.723Z,128.60
2022-11-25T22:37:53.570Z,136.40
2022-11-25T22:40:23.808Z,134.50
2022-11-25T22:42:52.269Z,147.30
2022-11-25T22:45:33.755Z,142.60
2022-11-25T22:48:04.805Z,137.20
2022-11-25T22:50:33.548Z,145.20
2022-11-25T22:53:01.854Z,156.90
2022-11-25T22:55:32.095Z,148.40
2022-11-25T22:58:01.698Z,146.60
2022-11-25T23:00:38.448Z,134.70
2022-11-25T23:03:07.853Z,142.10
2022-11-25T23:05:36.935Z,140.90
2022-11-25T23:08:17.751Z,136.40
2022-11-25T23:10:46.596Z,124.00
2022-11-25T23:13:15.780Z,127.70
2022-11-25T23:15:48.013Z,117.50
2022-11-25T23:18:20.387Z,116.80
2022-11-25T23:20:49.367Z,114.40
2022-11-25T23:23:19.755Z,139.70
2022-11-25T23:25:47.967Z,141.70
2022-11-25T23:28:16.359Z,142.50
2022-11-25T23:30:58.309Z,139.70
2022-11-25T23:33:40.613Z,150.80
2022-11-25T23:36:30.124Z,144.20
2022-11-25T23:39:03.524Z,139.10
2022-11-25T23:41:33.783Z,145.80
2022-11-25T23:44:09.447Z,128.50
2022-11-25T23:46:37.428Z,130.90
2022-11-25T23:49:07.249Z,129.80
2022-11-25T23:51:34.912Z,127.10
2022-11-25T23:54:02.644Z,118.60
2022-11-25T23:56:30.409Z,118.60
2022-11-25T23:58:58.031Z,124.30
